Time;durP1;ratioP1;P1;durP2;ratioP2;P2;SDS_P1;SDS_P2;PMS_P1;PMS_P2;Temp;Humidity;BMP_temperature;BMP_pressure;BME280_temperature;BME280_humidity;BME280_pressure;Samples;Min_cycle;Max_cycle;Signal;HPM_P1;HPM_P2
2023/01/03 00:00:40;;;;;;;;;;;;;;;25.97;22.52;98727.06;4990307;28;19926;-90
2023/01/03 00:03:06;;;;;;;;;;;;;;;25.65;23.06;98727.63;4985954;28;20000;-90
2023/01/03 00:05:33;;;;;;;;;;;;;;;25.08;23.93;98724.97;4982356;28;19922;-91
2023/01/03 00:07:59;;;;;;;;;;;;;;;24.34;24.77;98728.78;4983995;28;20008;-90
2023/01/03 00:10:25;;;;;;;;;;;;;;;23.73;25.86;98729.88;4991888;28;19929;-90
2023/01/03 00:12:51;;;;;;;;;;;;;;;24.15;25.20;98737.88;4982847;28;19929;-91
2023/01/03 00:15:17;;;;;;;;;;;;;;;23.51;26.38;98742.50;4994531;28;19922;-90
2023/01/03 00:17:44;;;;;;;;;;;;;;;23.84;25.88;98734.16;4987633;28;19922;-90
2023/01/03 00:20:10;;;;;;;;;;;;;;;24.93;24.56;98740.44;4978775;28;19925;-90
2023/01/03 00:22:36;;;;;;;;;;;;;;;25.03;24.14;98738.69;4991537;28;19922;-90
2023/01/03 00:25:02;;;;;;;;;;;;;;;25.40;23.75;98739.28;4989443;28;20342;-90
2023/01/03 00:27:28;;;;;;;;;;;;;;;25.61;23.43;98732.53;4975503;28;19922;-90
2023/01/03 00:29:54;;;;;;;;;;;;;;;25.74;22.93;98750.38;4995646;28;19917;-90
2023/01/03 00:32:20;;;;;;;;;;;;;;;26.02;22.21;98740.63;4988267;28;20020;-90
2023/01/03 00:34:46;;;;;;;;;;;;;;;26.18;21.91;98749.19;4980240;28;19918;-90
2023/01/03 00:37:13;;;;;;;;;;;;;;;25.98;22.34;98751.94;4984377;28;19921;-90
2023/01/03 00:39:39;;;;;;;;;;;;;;;25.89;22.68;98754.53;4994857;28;20386;-91
2023/01/03 00:42:05;;;;;;;;;;;;;;;25.86;22.75;98760.19;4965876;28;20425;-91
2023/01/03 00:44:32;;;;;;;;;;;;;;;25.50;23.20;98765.69;4978968;28;19918;-91
2023/01/03 00:46:58;;;;;;;;;;;;;;;25.99;22.73;98764.00;4982643;28;20393;-90
2023/01/03 00:49:24;;;;;;;;;;;;;;;26.22;22.27;98763.97;4984965;28;19937;-90
2023/01/03 00:51:52;;;;;;;;;;;;;;;26.34;21.60;98766.16;4983752;28;19922;-90
2023/01/03 00:54:19;;;;;;;;;;;;;;;26.28;21.93;98770.69;4988059;28;19952;-90
2023/01/03 00:56:46;;;;;;;;;;;;;;;25.95;22.16;98761.22;4984539;28;19969;-90
2023/01/03 00:59:12;;;;;;;;;;;;;;;25.65;22.85;98769.03;4982312;28;19922;-90
2023/01/03 01:01:40;;;;;;;;;;;;;;;25.38;22.77;98775.47;4986495;28;19976;-90
2023/01/03 01:04:08;;;;;;;;;;;;;;;25.52;22.54;98776.47;4983467;28;20298;-90
2023/01/03 01:06:37;;;;;;;;;;;;;;;25.58;22.52;98780.41;4989123;28;19929;-90
2023/01/03 01:09:04;;;;;;;;;;;;;;;25.75;22.07;98782.09;4981770;28;19929;-90
2023/01/03 01:11:30;;;;;;;;;;;;;;;25.33;22.44;98784.38;4986124;28;20405;-90
2023/01/03 01:13:57;;;;;;;;;;;;;;;25.17;22.89;98792.66;4976638;28;19922;-90
2023/01/03 01:16:27;;;;;;;;;;;;;;;25.45;22.78;98785.03;4991459;28;19930;-90
2023/01/03 01:18:53;;;;;;;;;;;;;;;25.64;23.00;98787.13;4984555;28;19933;-90
2023/01/03 01:21:26;;;;;;;;;;;;;;;25.45;22.46;98785.03;4989379;28;20436;-90
2023/01/03 01:23:52;;;;;;;;;;;;;;;24.99;23.22;98788.53;4986677;28;21577;-90
2023/01/03 01:26:19;;;;;;;;;;;;;;;25.41;22.80;98787.88;4981380;28;19960;-90
2023/01/03 01:28:46;;;;;;;;;;;;;;;25.27;22.96;98788.91;4987280;28;19968;-90
2023/01/03 01:31:13;;;;;;;;;;;;;;;25.26;22.32;98789.31;4983368;28;19922;-90
2023/01/03 01:33:39;;;;;;;;;;;;;;;25.13;22.97;98791.13;4991689;28;19922;-90
2023/01/03 01:36:08;;;;;;;;;;;;;;;25.31;22.72;98795.28;4984909;28;19986;-90
2023/01/03 01:38:35;;;;;;;;;;;;;;;25.47;22.78;98782.59;4989569;28;20389;-90
2023/01/03 01:41:01;;;;;;;;;;;;;;;25.38;23.00;98785.91;4993410;28;20449;-90
2023/01/03 01:46:11;;;;;;;;;;;;;;;25.16;23.34;98791.06;4977327;28;19992;-90
2023/01/03 01:48:38;;;;;;;;;;;;;;;25.19;22.62;98786.63;4986251;28;20381;-90
2023/01/03 01:51:07;;;;;;;;;;;;;;;24.77;23.79;98779.59;4989270;28;20289;-90
2023/01/03 01:53:35;;;;;;;;;;;;;;;24.90;23.47;98779.84;4965947;28;20020;-90
2023/01/03 01:56:12;;;;;;;;;;;;;;;24.44;23.80;98789.63;4989685;28;19945;-90
2023/01/03 01:58:40;;;;;;;;;;;;;;;24.89;23.12;98787.47;4993148;28;19928;-90
2023/01/03 02:01:08;;;;;;;;;;;;;;;24.85;23.47;98778.31;4983848;28;19918;-90
2023/01/03 02:03:34;;;;;;;;;;;;;;;23.81;24.01;98791.09;4994198;28;19921;-90
2023/01/03 02:06:01;;;;;;;;;;;;;;;24.38;23.67;98788.50;4984982;28;19924;-90
2023/01/03 02:08:27;;;;;;;;;;;;;;;24.81;23.31;98776.75;4982419;28;19929;-90
2023/01/03 02:11:11;;;;;;;;;;;;;;;25.16;22.84;98773.41;4985519;28;19968;-90
2023/01/03 02:13:45;;;;;;;;;;;;;;;24.89;22.41;98776.22;4991658;28;19929;-90
2023/01/03 02:16:22;;;;;;;;;;;;;;;24.72;23.23;98768.81;4981999;28;19953;-91
2023/01/03 02:18:57;;;;;;;;;;;;;;;25.04;22.83;98774.00;4992442;28;19922;-90
2023/01/03 02:21:32;;;;;;;;;;;;;;;24.96;22.80;98775.31;4989955;28;19929;-90
2023/01/03 02:24:37;;;;;;;;;;;;;;;25.02;22.94;98770.84;4996331;28;20398;-90
2023/01/03 02:27:26;;;;;;;;;;;;;;;24.76;23.60;98780.00;4934644;29;20375;-90
2023/01/03 02:30:10;;;;;;;;;;;;;;;24.62;23.21;98786.59;4930694;29;19918;-90
2023/01/03 02:32:57;;;;;;;;;;;;;;;24.77;23.24;98787.22;4977320;28;20422;-90
2023/01/03 02:35:42;;;;;;;;;;;;;;;24.10;24.50;98788.03;4992641;28;19940;-90
2023/01/03 02:38:12;;;;;;;;;;;;;;;24.83;23.45;98782.75;4992400;28;19921;-90
2023/01/03 02:40:43;;;;;;;;;;;;;;;25.28;23.12;98798.91;4985205;28;19918;-90
2023/01/03 02:43:15;;;;;;;;;;;;;;;25.20;22.93;98791.84;4966198;28;20325;-91
2023/01/03 02:45:50;;;;;;;;;;;;;;;25.36;23.05;98799.59;4987697;28;20293;-90
2023/01/03 02:48:18;;;;;;;;;;;;;;;25.59;22.71;98802.47;4979019;28;20378;-90
2023/01/03 02:50:47;;;;;;;;;;;;;;;25.50;23.14;98805.03;4983322;28;20454;-90
2023/01/03 02:53:15;;;;;;;;;;;;;;;25.33;22.95;98800.44;4976305;28;19929;-90
2023/01/03 02:55:42;;;;;;;;;;;;;;;25.23;23.31;98807.03;4984721;28;19937;-90
2023/01/03 02:58:13;;;;;;;;;;;;;;;25.04;23.15;98804.94;4982117;28;19922;-90
2023/01/03 03:00:42;;;;;;;;;;;;;;;25.20;23.58;98810.72;4987959;28;19969;-90
2023/01/03 03:03:12;;;;;;;;;;;;;;;25.58;23.13;98802.91;4993255;28;19922;-90
2023/01/03 03:05:46;;;;;;;;;;;;;;;25.59;23.01;98801.69;4987061;28;19926;-90
2023/01/03 03:08:12;;;;;;;;;;;;;;;25.54;22.76;98807.78;4991058;28;20288;-90
2023/01/03 03:13:29;;;;;;;;;;;;;;;25.75;22.71;98816.66;4993646;28;19929;-90
2023/01/03 03:15:58;;;;;;;;;;;;;;;25.62;22.78;98815.69;4975826;28;19934;-90
2023/01/03 03:18:43;;;;;;;;;;;;;;;25.57;22.52;98821.00;4986813;28;19965;-90
2023/01/03 03:28:33;;;;;;;;;;;;;;;25.97;23.22;98831.97;4933648;29;20080;-91
2023/01/03 03:29:49;;;;;;;;;;;;;;;26.11;22.50;98830.13;4990393;28;19929;-90
2023/01/03 03:32:15;;;;;;;;;;;;;;;26.09;23.15;98831.31;4988557;28;19960;-90
2023/01/03 03:34:42;;;;;;;;;;;;;;;26.27;22.51;98831.03;4981762;28;19928;-90
2023/01/03 03:37:15;;;;;;;;;;;;;;;26.20;22.90;98836.00;4976276;28;19929;-90
2023/01/03 03:45:24;;;;;;;;;;;;;;;25.98;22.37;98853.25;4994608;28;19928;-91
2023/01/03 03:47:50;;;;;;;;;;;;;;;26.06;22.78;98853.91;4992971;28;20432;-90
2023/01/03 03:50:34;;;;;;;;;;;;;;;26.26;21.85;98851.16;4989578;28;19926;-90
2023/01/03 03:53:03;;;;;;;;;;;;;;;25.50;22.49;98864.09;4984530;28;19969;-90
2023/01/03 03:55:33;;;;;;;;;;;;;;;25.55;22.44;98862.81;4978765;28;19965;-90
2023/01/03 03:58:02;;;;;;;;;;;;;;;25.63;23.00;98872.72;4978587;28;20436;-90
2023/01/03 04:00:30;;;;;;;;;;;;;;;25.67;22.86;98873.47;4985077;28;19930;-91
2023/01/03 04:02:58;;;;;;;;;;;;;;;25.66;22.78;98872.69;4977714;28;19918;-91
2023/01/03 04:05:26;;;;;;;;;;;;;;;24.89;24.30;98882.19;4991757;28;20028;-90
2023/01/03 04:07:52;;;;;;;;;;;;;;;23.20;26.67;98890.00;4991222;28;19960;-90
2023/01/03 04:10:19;;;;;;;;;;;;;;;22.01;28.98;98898.34;4987863;28;19930;-90
2023/01/03 04:12:46;;;;;;;;;;;;;;;22.75;28.14;98894.66;4991422;28;20375;-90
2023/01/03 04:15:13;;;;;;;;;;;;;;;21.87;29.93;98905.94;4992097;28;19939;-90
2023/01/03 04:17:39;;;;;;;;;;;;;;;21.89;29.96;98909.16;4980962;28;19930;-90
2023/01/03 04:20:05;;;;;;;;;;;;;;;21.62;30.67;98917.09;4988149;28;19957;-90
2023/01/03 04:22:31;;;;;;;;;;;;;;;22.41;29.45;98910.28;4990226;28;19923;-90
2023/01/03 04:24:57;;;;;;;;;;;;;;;20.83;32.47;98913.63;4985434;28;19976;-90
2023/01/03 04:27:23;;;;;;;;;;;;;;;21.96;30.22;98917.53;4987556;28;19928;-90
2023/01/03 04:29:49;;;;;;;;;;;;;;;20.91;32.50;98918.06;4987560;28;19918;-90
2023/01/03 04:32:15;;;;;;;;;;;;;;;20.90;32.56;98922.03;4983233;28;19930;-90
2023/01/03 04:34:41;;;;;;;;;;;;;;;20.38;33.84;98923.34;4972335;28;19917;-89
2023/01/03 04:37:07;;;;;;;;;;;;;;;19.58;35.46;98927.06;4990123;28;20409;-89
2023/01/03 04:39:33;;;;;;;;;;;;;;;20.48;33.70;98931.00;4990021;28;20000;-88
2023/01/03 04:42:00;;;;;;;;;;;;;;;20.52;33.45;98934.59;4988479;28;20016;-89
2023/01/03 04:44:26;;;;;;;;;;;;;;;20.81;33.05;98929.97;4991688;28;19948;-90
2023/01/03 04:46:53;;;;;;;;;;;;;;;20.84;33.28;98943.16;4979966;28;19922;-89
2023/01/03 04:49:19;;;;;;;;;;;;;;;20.88;32.69;98950.34;4985599;28;19925;-89
2023/01/03 04:51:45;;;;;;;;;;;;;;;20.23;34.53;98949.53;4989192;28;20549;-89
2023/01/03 04:54:11;;;;;;;;;;;;;;;20.74;33.81;98953.06;4982710;28;19957;-89
2023/01/03 04:56:37;;;;;;;;;;;;;;;20.96;32.97;98951.16;4980347;28;19977;-89
2023/01/03 04:59:03;;;;;;;;;;;;;;;21.43;32.41;98950.16;4982647;28;20455;-89
2023/01/03 05:01:30;;;;;;;;;;;;;;;21.44;32.48;98948.97;4982603;28;19918;-89
2023/01/03 05:03:59;;;;;;;;;;;;;;;22.82;29.97;98947.81;4987916;28;19921;-89
2023/01/03 05:06:26;;;;;;;;;;;;;;;22.88;30.00;98940.59;4976417;28;19921;-89
2023/01/03 05:08:53;;;;;;;;;;;;;;;22.41;30.76;98946.66;4990383;28;19922;-89
2023/01/03 05:11:19;;;;;;;;;;;;;;;23.59;28.84;98948.69;4987880;28;19929;-89
2023/01/03 05:13:45;;;;;;;;;;;;;;;24.45;27.79;98947.63;4981514;28;19933;-89
2023/01/03 05:16:12;;;;;;;;;;;;;;;25.00;26.40;98942.63;4980935;28;19929;-89
2023/01/03 05:18:38;;;;;;;;;;;;;;;25.42;25.94;98947.72;4988059;28;20424;-90
2023/01/03 05:26:36;;;;;;;;;;;;;;;25.85;25.18;98961.19;4981130;28;19949;-89
2023/01/03 05:29:02;;;;;;;;;;;;;;;25.61;25.32;98973.59;4965005;28;19922;-88
2023/01/03 05:31:28;;;;;;;;;;;;;;;25.24;26.23;98972.47;4984263;28;20268;-88
2023/01/03 05:33:55;;;;;;;;;;;;;;;24.42;27.84;98979.34;4983258;28;19938;-88
2023/01/03 05:36:21;;;;;;;;;;;;;;;24.83;26.93;98974.56;4991595;28;20505;-89
2023/01/03 05:38:47;;;;;;;;;;;;;;;25.26;26.31;98980.47;4982549;28;19922;-88
2023/01/03 05:41:58;;;;;;;;;;;;;;;24.90;26.75;98984.91;4965732;28;19961;-88
2023/01/03 05:44:00;;;;;;;;;;;;;;;24.58;27.28;98988.81;4979840;28;19925;-88
2023/01/03 05:46:26;;;;;;;;;;;;;;;25.09;26.17;98987.06;4987883;28;19933;-88
2023/01/03 05:48:52;;;;;;;;;;;;;;;24.40;27.19;98992.97;4980193;28;19937;-89
2023/01/03 05:51:18;;;;;;;;;;;;;;;24.11;28.17;98995.22;4982192;28;20760;-90
2023/01/03 05:53:44;;;;;;;;;;;;;;;23.51;28.68;99001.19;4988813;28;20416;-89
2023/01/03 05:56:10;;;;;;;;;;;;;;;22.90;30.25;99001.78;4979613;28;19922;-89
2023/01/03 05:58:36;;;;;;;;;;;;;;;22.73;30.29;99020.25;4982081;28;19922;-92
2023/01/03 06:01:08;;;;;;;;;;;;;;;22.71;30.40;99016.25;4985277;28;19922;-90
2023/01/03 06:03:34;;;;;;;;;;;;;;;22.79;30.36;99020.59;4983300;28;19930;-91
2023/01/03 06:06:01;;;;;;;;;;;;;;;22.64;31.10;99014.22;4979234;28;19945;-89
2023/01/03 06:08:27;;;;;;;;;;;;;;;23.29;29.69;99017.25;4979337;28;19917;-90
2023/01/03 06:10:53;;;;;;;;;;;;;;;23.88;28.59;99014.59;4979293;28;19989;-90
2023/01/03 06:13:20;;;;;;;;;;;;;;;22.93;30.48;99026.19;4997593;28;19985;-89
2023/01/03 06:17:53;;;;;;;;;;;;;;;23.26;29.50;99029.28;4969266;28;19918;-88
2023/01/03 06:18:35;;;;;;;;;;;;;;;22.94;30.44;99039.00;4997012;28;20490;-89
2023/01/03 06:21:02;;;;;;;;;;;;;;;22.73;30.57;99051.03;4997393;28;19917;-91
2023/01/03 06:23:28;;;;;;;;;;;;;;;23.09;30.06;99040.53;4996990;28;19988;-90
2023/01/03 06:25:54;;;;;;;;;;;;;;;23.72;29.40;99040.31;4997311;28;20374;-90
2023/01/03 06:28:20;;;;;;;;;;;;;;;24.59;27.53;99042.97;4993998;28;19918;-90
2023/01/03 06:30:46;;;;;;;;;;;;;;;24.82;27.25;99053.59;4990239;28;19969;-89
2023/01/03 06:33:12;;;;;;;;;;;;;;;24.01;28.59;99063.41;4987483;28;20023;-88
2023/01/03 06:35:38;;;;;;;;;;;;;;;24.92;26.98;99061.16;4982827;28;19922;-88
2023/01/03 06:38:04;;;;;;;;;;;;;;;23.55;29.19;99063.63;4967647;28;19925;-88
2023/01/03 06:40:30;;;;;;;;;;;;;;;24.44;27.76;99066.72;4986396;28;19957;-88
2023/01/03 06:42:56;;;;;;;;;;;;;;;24.83;27.42;99084.13;4989758;28;19984;-88
2023/01/03 06:53:39;;;;;;;;;;;;;;;24.55;27.61;99101.16;4983435;28;20481;-88
2023/01/03 06:56:05;;;;;;;;;;;;;;;25.25;26.31;99102.56;4996933;28;19922;-88
2023/01/03 06:58:32;;;;;;;;;;;;;;;25.37;26.29;99102.00;4989024;28;19922;-88
2023/01/03 07:01:01;;;;;;;;;;;;;;;25.59;26.26;99103.41;4977547;28;19949;-89
2023/01/03 07:03:27;;;;;;;;;;;;;;;25.08;26.58;99114.78;4977122;28;20293;-88
2023/01/03 07:05:53;;;;;;;;;;;;;;;25.22;26.79;99114.63;4996660;28;19922;-88
2023/01/03 07:08:19;;;;;;;;;;;;;;;25.76;25.81;99115.66;4978385;28;19927;-89
2023/01/03 07:10:45;;;;;;;;;;;;;;;24.25;28.02;99123.44;4976869;28;19926;-88
2023/01/03 07:15:56;;;;;;;;;;;;;;;24.76;27.42;99131.09;4977671;28;19928;-88
2023/01/03 07:18:22;;;;;;;;;;;;;;;25.15;26.92;99126.75;4990404;28;19926;-88
2023/01/03 07:20:48;;;;;;;;;;;;;;;24.74;27.23;99132.28;4980172;28;19929;-89
2023/01/03 07:23:14;;;;;;;;;;;;;;;24.76;27.39;99128.28;4986406;28;19925;-88
2023/01/03 07:25:41;;;;;;;;;;;;;;;25.65;26.25;99124.22;4996144;28;19925;-88
2023/01/03 07:28:09;;;;;;;;;;;;;;;25.10;26.79;99129.19;4996086;28;19921;-88
2023/01/03 07:30:40;;;;;;;;;;;;;;;25.35;26.25;99127.75;4995677;28;19928;-88
2023/01/03 07:33:10;;;;;;;;;;;;;;;25.28;26.09;99130.63;4996060;28;19925;-89
2023/01/03 07:35:36;;;;;;;;;;;;;;;24.93;26.92;99139.38;4995781;28;19964;-88
2023/01/03 07:38:04;;;;;;;;;;;;;;;24.23;27.43;99132.25;4996003;28;19917;-88
2023/01/03 07:40:30;;;;;;;;;;;;;;;25.04;26.54;99133.69;4987706;28;20290;-88
2023/01/03 07:45:41;;;;;;;;;;;;;;;25.72;25.71;99149.44;4976325;28;19972;-88
2023/01/03 07:48:08;;;;;;;;;;;;;;;25.60;26.13;99152.03;4988138;28;20274;-88
2023/01/03 07:50:34;;;;;;;;;;;;;;;25.97;25.84;99151.97;4988304;28;19918;-88
2023/01/03 07:53:00;;;;;;;;;;;;;;;26.77;24.75;99154.88;4959031;28;19922;-88
2023/01/03 07:55:27;;;;;;;;;;;;;;;27.19;24.26;99162.66;4981849;28;20013;-89
2023/01/03 07:57:54;;;;;;;;;;;;;;;27.48;24.20;99154.50;4968055;28;19949;-89
2023/01/03 08:00:20;;;;;;;;;;;;;;;28.03;23.51;99162.28;4987610;28;20011;-89
2023/01/03 08:02:46;;;;;;;;;;;;;;;28.40;23.14;99158.28;4983204;28;20363;-89
2023/01/03 08:05:12;;;;;;;;;;;;;;;28.37;22.68;99159.16;4989808;28;19969;-86
2023/01/03 08:07:38;;;;;;;;;;;;;;;27.58;23.70;99173.25;4986060;28;19925;-89
2023/01/03 08:15:35;;;;;;;;;;;;;;;28.06;22.66;99176.34;4979551;28;19933;-88
2023/01/03 08:18:02;;;;;;;;;;;;;;;28.05;22.83;99180.38;4993231;28;20020;-88
2023/01/03 08:20:28;;;;;;;;;;;;;;;28.23;22.69;99171.56;4993303;28;20432;-88
2023/01/03 08:22:54;;;;;;;;;;;;;;;28.11;22.55;99182.72;4991026;28;20020;-88
2023/01/03 08:25:20;;;;;;;;;;;;;;;28.13;22.47;99185.91;4984905;28;19922;-88
2023/01/03 08:27:46;;;;;;;;;;;;;;;27.76;22.90;99192.66;4992485;28;19925;-88
2023/01/03 08:30:12;;;;;;;;;;;;;;;27.22;23.28;99190.00;4990035;28;19980;-88
2023/01/03 08:32:38;;;;;;;;;;;;;;;27.45;23.15;99192.03;4986805;28;19926;-88
2023/01/03 08:35:05;;;;;;;;;;;;;;;27.09;23.50;99186.19;4990367;28;20026;-88
2023/01/03 08:40:35;;;;;;;;;;;;;;;27.33;23.47;99190.59;4990017;28;19929;-88
2023/01/03 08:43:03;;;;;;;;;;;;;;;27.37;23.05;99197.03;4983022;28;19921;-88
2023/01/03 08:45:29;;;;;;;;;;;;;;;27.11;23.50;99200.66;4991838;28;19929;-88
2023/01/03 08:47:58;;;;;;;;;;;;;;;27.38;23.17;99197.78;4990046;28;19926;-88
2023/01/03 08:50:25;;;;;;;;;;;;;;;27.33;23.17;99199.06;4991627;28;20023;-88
2023/01/03 08:52:51;;;;;;;;;;;;;;;26.80;24.07;99213.22;4987691;28;19926;-88
2023/01/03 08:55:17;;;;;;;;;;;;;;;25.89;25.19;99210.34;4993317;28;20016;-88
2023/01/03 08:57:43;;;;;;;;;;;;;;;24.49;27.63;99212.28;4993159;28;19922;-88
2023/01/03 09:00:10;;;;;;;;;;;;;;;24.41;27.02;99205.13;4993214;28;19924;-88
2023/01/03 09:02:36;;;;;;;;;;;;;;;25.14;26.13;99212.28;4991288;28;19980;-89
2023/01/03 09:05:02;;;;;;;;;;;;;;;25.26;26.17;99211.78;4978544;28;19933;-89
2023/01/03 09:07:28;;;;;;;;;;;;;;;24.18;27.29;99219.66;4974983;28;19918;-88
2023/01/03 09:09:54;;;;;;;;;;;;;;;24.83;26.77;99209.72;4978339;28;20408;-90
2023/01/03 09:12:20;;;;;;;;;;;;;;;23.26;30.01;99219.84;4971174;28;19967;-88
2023/01/03 09:14:46;;;;;;;;;;;;;;;24.08;28.81;99216.91;4991899;28;19929;-88
2023/01/03 09:17:12;;;;;;;;;;;;;;;24.74;28.60;99207.31;4973338;28;20341;-88
2023/01/03 09:19:38;;;;;;;;;;;;;;;23.78;28.84;99223.00;4975451;28;19917;-88
2023/01/03 09:22:04;;;;;;;;;;;;;;;24.48;27.81;99221.94;4976384;28;19981;-88
2023/01/03 09:24:30;;;;;;;;;;;;;;;23.77;29.89;99232.59;4980183;28;19922;-88
2023/01/03 09:26:56;;;;;;;;;;;;;;;22.72;31.24;99234.19;4988284;28;19922;-88
2023/01/03 09:29:22;;;;;;;;;;;;;;;23.78;29.45;99223.00;4987385;28;19940;-88
2023/01/03 09:31:48;;;;;;;;;;;;;;;24.91;27.51;99211.25;4981969;28;19980;-88
2023/01/03 09:34:14;;;;;;;;;;;;;;;24.68;27.93;99206.97;4993528;28;19917;-88
2023/01/03 09:36:40;;;;;;;;;;;;;;;25.17;27.07;99214.25;4990868;28;19922;-88
2023/01/03 09:39:06;;;;;;;;;;;;;;;24.82;28.73;99206.09;4982995;28;20282;-88
2023/01/03 09:41:32;;;;;;;;;;;;;;;25.22;27.21;99218.63;4993710;28;20278;-87
2023/01/03 09:44:01;;;;;;;;;;;;;;;26.07;26.07;99213.75;4993664;28;19917;-88
2023/01/03 09:46:28;;;;;;;;;;;;;;;26.14;26.11;99203.66;4991672;28;19921;-88
2023/01/03 09:48:54;;;;;;;;;;;;;;;25.91;26.72;99205.09;4991865;28;19926;-87
2023/01/03 10:06:18;;;;;;;;;;;;;;;24.14;29.12;99201.25;4986997;28;19971;-87
2023/01/03 10:09:03;;;;;;;;;;;;;;;23.38;30.10;99210.25;4964722;28;20025;-88
2023/01/03 10:11:38;;;;;;;;;;;;;;;22.86;31.03;99209.03;4980130;28;19922;-88
2023/01/03 10:14:24;;;;;;;;;;;;;;;23.77;29.76;99210.97;4984659;28;19985;-88
2023/01/03 10:16:56;;;;;;;;;;;;;;;22.90;31.91;99214.59;4990437;28;19976;-87
2023/01/03 10:19:45;;;;;;;;;;;;;;;23.51;29.55;99217.03;4986721;28;19968;-87
2023/01/03 10:22:11;;;;;;;;;;;;;;;23.00;31.58;99214.63;4958690;28;19928;-87
2023/01/03 10:25:08;;;;;;;;;;;;;;;22.92;30.77;99221.41;4986789;28;19937;-87
2023/01/03 10:27:34;;;;;;;;;;;;;;;22.58;31.30;99217.34;4983092;28;20360;-87
2023/01/03 10:30:03;;;;;;;;;;;;;;;23.04;30.72;99223.03;4987417;28;19956;-88
2023/01/03 10:32:29;;;;;;;;;;;;;;;24.14;29.89;99212.47;4983026;28;19993;-87
2023/01/03 10:35:00;;;;;;;;;;;;;;;24.18;28.76;99210.47;4991116;28;20373;-87
2023/01/03 10:37:26;;;;;;;;;;;;;;;24.75;27.84;99208.94;4975120;28;19922;-88
2023/01/03 10:40:03;;;;;;;;;;;;;;;24.50;28.71;99216.72;4985990;28;19929;-87
2023/01/03 10:42:31;;;;;;;;;;;;;;;24.88;28.63;99212.09;4994789;28;19976;-87
2023/01/03 10:45:02;;;;;;;;;;;;;;;22.94;32.54;99204.22;4989934;28;19924;-87
2023/01/03 10:47:28;;;;;;;;;;;;;;;23.80;29.85;99215.78;4992354;28;20047;-87
2023/01/03 10:49:59;;;;;;;;;;;;;;;23.78;30.51;99212.56;4996258;28;20353;-87
2023/01/03 10:52:29;;;;;;;;;;;;;;;23.95;28.69;99211.72;4994817;28;19925;-87
2023/01/03 10:54:59;;;;;;;;;;;;;;;24.37;28.77;99210.75;4991564;28;19989;-87
2023/01/03 10:57:47;;;;;;;;;;;;;;;24.02;29.28;99208.06;4985486;28;19988;-88
2023/01/03 11:00:33;;;;;;;;;;;;;;;23.86;29.10;99219.75;4974780;28;19949;-88
2023/01/03 11:03:08;;;;;;;;;;;;;;;24.54;28.52;99206.25;4990951;28;20033;-91
2023/01/03 11:05:35;;;;;;;;;;;;;;;24.88;27.03;99209.28;4987559;28;19914;-91
2023/01/03 11:08:02;;;;;;;;;;;;;;;24.76;28.82;99202.16;4994059;28;19921;-91
2023/01/03 11:10:32;;;;;;;;;;;;;;;25.26;26.99;99208.16;4994098;28;19928;-91
2023/01/03 11:12:58;;;;;;;;;;;;;;;25.23;27.95;99201.34;4989378;28;22604;-90
2023/01/03 11:15:31;;;;;;;;;;;;;;;25.00;28.26;99205.94;4985575;28;19913;-92
2023/01/03 11:17:58;;;;;;;;;;;;;;;23.91;30.40;99196.09;4986035;28;19922;-92
2023/01/03 11:20:34;;;;;;;;;;;;;;;24.23;28.49;99201.59;4970385;28;19968;-91
2023/01/03 11:23:02;;;;;;;;;;;;;;;24.46;28.47;99205.50;4992201;28;19941;-91
2023/01/03 11:25:47;;;;;;;;;;;;;;;23.75;30.14;99206.97;4996353;28;19965;-91
2023/01/03 11:28:13;;;;;;;;;;;;;;;24.57;28.58;99195.00;5005654;28;19961;-95
2023/01/03 11:30:45;;;;;;;;;;;;;;;24.00;29.35;99191.66;4996186;28;19953;-92
2023/01/03 11:33:22;;;;;;;;;;;;;;;25.66;26.92;99198.97;4993372;28;20405;-92
2023/01/03 11:36:06;;;;;;;;;;;;;;;26.25;25.89;99193.88;4978214;28;19919;-92
2023/01/03 11:38:43;;;;;;;;;;;;;;;26.18;25.23;99195.97;4981767;28;19922;-91
2023/01/03 11:41:16;;;;;;;;;;;;;;;26.13;26.21;99191.59;4992854;28;20341;-91
2023/01/03 11:44:00;;;;;;;;;;;;;;;26.09;25.56;99194.41;4965829;28;20433;-91
2023/01/03 11:46:40;;;;;;;;;;;;;;;26.33;25.02;99189.72;4995099;28;19925;-91
2023/01/03 11:49:12;;;;;;;;;;;;;;;26.04;25.71;99183.63;4987153;28;19940;-92
2023/01/03 11:51:47;;;;;;;;;;;;;;;26.59;24.88;99188.94;4996757;28;20012;-90
2023/01/03 11:54:33;;;;;;;;;;;;;;;25.96;25.23;99175.69;4981081;28;19925;-91
2023/01/03 11:57:03;;;;;;;;;;;;;;;26.00;26.83;99176.44;4990586;28;19922;-91
2023/01/03 11:59:41;;;;;;;;;;;;;;;26.83;24.33;99172.13;4968933;28;20351;-91
2023/01/03 12:02:13;;;;;;;;;;;;;;;27.40;24.02;99186.88;4989213;28;20331;-93
2023/01/03 12:04:54;;;;;;;;;;;;;;;27.64;23.22;99190.47;4985462;28;19922;-92
2023/01/03 12:07:46;;;;;;;;;;;;;;;26.86;24.77;99185.38;4991802;28;20013;-93
2023/01/03 12:10:24;;;;;;;;;;;;;;;27.27;23.83;99191.53;4987419;28;20381;-93
2023/01/03 12:13:02;;;;;;;;;;;;;;;26.90;23.99;99184.09;4985091;28;19918;-92
2023/01/03 12:15:42;;;;;;;;;;;;;;;25.69;25.56;99194.50;4994826;28;22308;-92
2023/01/03 12:18:22;;;;;;;;;;;;;;;26.48;24.17;99187.50;4985122;28;19922;-92
2023/01/03 12:20:53;;;;;;;;;;;;;;;25.00;26.12;99186.28;4990025;28;19928;-92
2023/01/03 12:23:25;;;;;;;;;;;;;;;25.04;27.29;99187.84;4993383;28;20338;-92
2023/01/03 12:25:54;;;;;;;;;;;;;;;24.82;26.90;99186.44;4994387;28;19925;-92
2023/01/03 12:28:23;;;;;;;;;;;;;;;24.86;26.23;99177.97;4990198;28;20005;-93
2023/01/03 12:30:57;;;;;;;;;;;;;;;25.03;26.34;99179.84;4964757;28;19918;-93
2023/01/03 12:33:45;;;;;;;;;;;;;;;25.45;24.83;99181.50;4976000;28;19922;-94
2023/01/03 12:36:14;;;;;;;;;;;;;;;25.30;25.55;99178.00;4979755;28;19981;-92
2023/01/03 12:38:43;;;;;;;;;;;;;;;25.68;25.17;99178.84;4965927;28;19929;-92
2023/01/03 12:41:27;;;;;;;;;;;;;;;26.14;25.19;99181.16;4994795;28;19918;-92
2023/01/03 12:44:02;;;;;;;;;;;;;;;27.24;22.92;99178.28;4983350;28;19967;-92
2023/01/03 12:46:31;;;;;;;;;;;;;;;26.57;23.84;99176.50;4988622;28;20296;-92
2023/01/03 12:49:04;;;;;;;;;;;;;;;26.19;24.13;99183.47;4993905;28;20014;-92
2023/01/03 12:51:30;;;;;;;;;;;;;;;26.57;23.78;99171.69;4994720;28;19917;-92
2023/01/03 12:53:59;;;;;;;;;;;;;;;27.11;23.03;99178.09;4993291;28;20370;-92
2023/01/03 12:56:39;;;;;;;;;;;;;;;27.63;22.40;99175.59;4980436;28;19926;-92
2023/01/03 12:59:24;;;;;;;;;;;;;;;27.10;22.47;99167.22;4988622;28;20012;-92
2023/01/03 13:01:57;;;;;;;;;;;;;;;27.08;22.91;99166.88;4994004;28;19918;-92
2023/01/03 13:04:28;;;;;;;;;;;;;;;27.08;22.33;99164.06;4975072;28;19929;-92
2023/01/03 13:07:03;;;;;;;;;;;;;;;27.21;22.78;99173.50;4980488;28;19918;-92
2023/01/03 13:09:35;;;;;;;;;;;;;;;27.18;22.32;99171.53;4968612;28;20298;-92
2023/01/03 13:12:05;;;;;;;;;;;;;;;27.18;22.38;99175.16;4969954;28;19965;-92
2023/01/03 13:14:49;;;;;;;;;;;;;;;27.55;22.20;99174.13;4972908;28;19918;-92
2023/01/03 13:17:17;;;;;;;;;;;;;;;27.28;22.89;99171.34;4972197;28;20405;-93
2023/01/03 13:19:50;;;;;;;;;;;;;;;27.57;22.53;99173.69;4959909;28;19922;-93
2023/01/03 13:22:21;;;;;;;;;;;;;;;27.10;22.49;99175.69;4970321;28;19930;-92
2023/01/03 13:24:49;;;;;;;;;;;;;;;26.51;23.36;99170.56;4971734;28;20351;-93
2023/01/03 13:27:15;;;;;;;;;;;;;;;26.58;23.26;99167.63;4969673;28;19922;-91
2023/01/03 13:29:43;;;;;;;;;;;;;;;26.78;23.36;99167.78;4972061;28;19929;-93
2023/01/03 13:32:14;;;;;;;;;;;;;;;27.15;22.73;99175.22;4965459;28;19922;-92
2023/01/03 13:34:40;;;;;;;;;;;;;;;27.43;22.63;99171.91;4972037;28;19922;-92
2023/01/03 13:37:10;;;;;;;;;;;;;;;26.57;23.30;99171.69;4967756;28;20013;-93
2023/01/03 13:39:38;;;;;;;;;;;;;;;26.52;23.64;99172.16;4964254;28;20008;-93
2023/01/03 13:42:04;;;;;;;;;;;;;;;26.92;23.16;99175.19;4972331;28;19918;-91
2023/01/03 13:44:30;;;;;;;;;;;;;;;27.54;22.03;99171.75;4960725;28;19950;-95
2023/01/03 13:46:57;;;;;;;;;;;;;;;27.09;22.45;99168.47;4966585;28;19922;-89
2023/01/03 13:49:24;;;;;;;;;;;;;;;27.51;21.95;99175.41;4966062;28;19929;-91
2023/01/03 13:51:54;;;;;;;;;;;;;;;27.51;22.15;99172.59;4968645;28;20454;-90
2023/01/03 13:54:20;;;;;;;;;;;;;;;27.84;21.85;99175.16;4964049;28;20339;-89
2023/01/03 13:56:46;;;;;;;;;;;;;;;27.68;22.30;99177.88;4971645;28;20021;-88
2023/01/03 13:59:16;;;;;;;;;;;;;;;28.21;21.65;99181.69;4963620;28;19965;-90